createdAt,value
2023-06-06T00:01:58.074Z,94439.94
2023-06-06T00:04:24.851Z,94446.56
2023-06-06T00:06:54.314Z,94433.91
2023-06-06T00:09:21.237Z,94443.38
2023-06-06T00:11:50.101Z,94437.56
2023-06-06T00:14:20.350Z,94439.13
2023-06-06T00:16:49.959Z,94436.00
2023-06-06T00:19:17.491Z,94439.13
2023-06-06T00:21:44.125Z,94436.31
2023-06-06T00:24:12.665Z,94438.25
2023-06-06T00:26:39.706Z,94435.19
2023-06-06T00:29:06.722Z,94429.75
2023-06-06T00:31:33.634Z,94426.28
2023-06-06T00:34:00.461Z,94429.84
2023-06-06T00:36:27.432Z,94425.94
2023-06-06T00:38:54.141Z,94432.91
2023-06-06T00:41:22.122Z,94427.06
2023-06-06T00:43:48.939Z,94438.75
2023-06-06T00:46:18.256Z,94436.44
2023-06-06T00:48:45.427Z,94444.13
2023-06-06T00:51:12.425Z,94440.66
2023-06-06T00:53:39.452Z,94450.72
2023-06-06T00:56:07.600Z,94448.38
2023-06-06T00:58:37.746Z,94447.22
2023-06-06T01:01:06.219Z,94449.19
2023-06-06T01:03:34.210Z,94449.19
2023-06-06T01:06:01.032Z,94444.94
2023-06-06T01:08:27.791Z,94444.09
2023-06-06T01:11:08.269Z,94454.94
2023-06-06T01:13:49.592Z,94449.09
2023-06-06T01:16:19.916Z,94452.56
2023-06-06T01:18:49.303Z,94456.03
2023-06-06T01:21:16.703Z,94459.91
2023-06-06T01:23:45.171Z,94462.25
2023-06-06T01:26:13.769Z,94458.75
2023-06-06T01:28:40.716Z,94456.84
2023-06-06T01:31:14.676Z,94453.72
2023-06-06T01:33:47.319Z,94455.59
2023-06-06T01:36:46.749Z,94460.66
2023-06-06T01:39:18.744Z,94465.28
2023-06-06T01:41:49.269Z,94446.78
2023-06-06T01:44:17.157Z,94461.81
2023-06-06T01:46:43.998Z,94463.81
2023-06-06T01:49:11.781Z,94456.06
2023-06-06T01:51:38.574Z,94459.19
2023-06-06T01:54:05.449Z,94459.56
2023-06-06T01:56:34.745Z,94462.25
2023-06-06T01:59:02.272Z,94460.69
2023-06-06T02:01:30.485Z,94465.63
2023-06-06T02:03:57.468Z,94469.22
2023-06-06T02:06:24.256Z,94462.00
2023-06-06T02:08:51.180Z,94479.22
2023-06-06T02:11:17.907Z,94464.47
2023-06-06T02:13:44.705Z,94470.72
2023-06-06T02:16:11.517Z,94465.38
2023-06-06T02:18:38.297Z,94475.34
2023-06-06T02:21:05.113Z,94474.22
2023-06-06T02:23:31.798Z,94483.53
2023-06-06T02:25:58.426Z,94482.44
2023-06-06T02:28:25.137Z,94477.97
2023-06-06T02:30:52.779Z,94486.66
2023-06-06T02:33:20.920Z,94486.44
2023-06-06T02:35:47.825Z,94477.06
2023-06-06T02:38:14.506Z,94485.25
2023-06-06T02:40:41.396Z,94487.28
2023-06-06T02:43:08.154Z,94493.50
2023-06-06T02:45:35.656Z,94491.63
2023-06-06T02:48:02.350Z,94492.44
2023-06-06T02:50:29.679Z,94499.09
2023-06-06T02:52:56.568Z,94491.44
2023-06-06T02:55:23.268Z,94502.00
2023-06-06T02:57:51.345Z,94501.56
2023-06-06T03:00:18.836Z,94497.59
2023-06-06T03:02:45.663Z,94494.91
2023-06-06T03:05:13.392Z,94499.72
2023-06-06T03:07:40.625Z,94504.69
2023-06-06T03:10:08.677Z,94499.75
2023-06-06T03:12:35.302Z,94502.72
2023-06-06T03:15:02.278Z,94507.16
2023-06-06T03:17:28.961Z,94502.66
2023-06-06T03:19:55.647Z,94510.66
2023-06-06T03:22:22.438Z,94513.28
2023-06-06T03:24:51.705Z,94506.09
2023-06-06T03:27:18.690Z,94505.09
2023-06-06T03:29:45.444Z,94511.56
2023-06-06T03:32:12.211Z,94513.63
2023-06-06T03:34:40.818Z,94512.03
2023-06-06T03:37:07.683Z,94514.75
2023-06-06T03:39:34.999Z,94508.19
2023-06-06T03:42:01.748Z,94514.31
2023-06-06T03:44:28.498Z,94519.78
2023-06-06T03:46:55.175Z,94515.19
2023-06-06T03:49:21.864Z,94516.75
2023-06-06T03:51:48.599Z,94514.75
2023-06-06T03:54:15.361Z,94510.78
2023-06-06T03:56:43.681Z,94514.56
2023-06-06T03:59:14.611Z,94507.69
2023-06-06T04:01:42.582Z,94513.59
2023-06-06T04:04:09.876Z,94509.69
2023-06-06T04:06:38.707Z,94516.28
2023-06-06T04:09:08.487Z,94507.38
2023-06-06T04:11:35.238Z,94504.28
2023-06-06T04:14:02.278Z,94511.97
2023-06-06T04:16:28.920Z,94507.09
2023-06-06T04:18:55.621Z,94513.59
2023-06-06T04:21:22.233Z,94516.31
2023-06-06T04:23:48.991Z,94520.59
2023-06-06T04:26:24.668Z,94523.31
2023-06-06T04:28:54.619Z,94520.63
2023-06-06T04:31:24.591Z,94514.88
2023-06-06T04:33:57.479Z,94518.69
2023-06-06T04:36:25.122Z,94525.25
2023-06-06T04:38:52.774Z,94511.81
2023-06-06T04:43:53.432Z,94517.97
2023-06-06T04:46:23.274Z,94514.13
2023-06-06T04:48:55.089Z,94516.78
2023-06-06T04:51:30.732Z,94512.97
2023-06-06T04:54:02.635Z,94514.16
2023-06-06T04:56:30.293Z,94513.75
2023-06-06T04:59:07.888Z,94522.28
2023-06-06T05:01:39.015Z,94506.00
2023-06-06T05:04:07.247Z,94512.19
2023-06-06T05:06:37.741Z,94509.50
2023-06-06T05:09:06.009Z,94515.69
2023-06-06T05:11:33.150Z,94511.84
2023-06-06T05:13:59.954Z,94517.22
2023-06-06T05:16:27.373Z,94524.97
2023-06-06T05:18:54.785Z,94514.91
2023-06-06T05:21:21.739Z,94524.97
2023-06-06T05:23:48.646Z,94524.97
2023-06-06T05:26:15.865Z,94523.03
2023-06-06T05:28:42.465Z,94516.81
2023-06-06T05:31:09.381Z,94521.84
2023-06-06T05:33:40.664Z,94524.19
2023-06-06T05:36:07.464Z,94521.47
2023-06-06T05:38:34.114Z,94525.72
2023-06-06T05:41:00.844Z,94512.50
2023-06-06T05:43:29.275Z,94518.72
2023-06-06T05:45:55.980Z,94510.47
2023-06-06T05:48:22.674Z,94508.94
2023-06-06T05:50:49.765Z,94507.38
2023-06-06T05:53:16.776Z,94506.19
2023-06-06T05:55:44.137Z,94507.88
2023-06-06T05:58:11.006Z,94513.25
2023-06-06T06:00:37.937Z,94518.44
2023-06-06T06:03:05.057Z,94515.59
2023-06-06T06:05:32.524Z,94513.69
2023-06-06T06:08:00.761Z,94511.91
2023-06-06T06:10:32.888Z,94506.09
2023-06-06T06:13:00.252Z,94501.63
2023-06-06T06:15:29.264Z,94500.41
2023-06-06T06:17:57.529Z,94508.50
2023-06-06T06:20:24.297Z,94506.09
2023-06-06T06:22:51.163Z,94506.19
2023-06-06T06:25:17.990Z,94510.97
2023-06-06T06:27:45.978Z,94503.31
2023-06-06T06:30:13.665Z,94508.25
2023-06-06T06:32:43.072Z,94503.41
2023-06-06T06:35:10.323Z,94496.41
2023-06-06T06:37:41.173Z,94506.38
2023-06-06T06:40:12.477Z,94506.84
2023-06-06T06:42:41.614Z,94499.88
2023-06-06T06:45:10.220Z,94497.66
2023-06-06T06:47:38.092Z,94498.00
2023-06-06T06:50:05.866Z,94491.56
2023-06-06T06:52:37.126Z,94491.72
2023-06-06T06:55:06.272Z,94491.59
2023-06-06T06:57:33.509Z,94493.31
2023-06-06T07:00:02.278Z,94495.22
2023-06-06T07:02:29.424Z,94495.66
2023-06-06T07:05:00.482Z,94501.78
2023-06-06T07:07:27.270Z,94498.19
2023-06-06T07:09:54.086Z,94502.28
2023-06-06T07:12:21.690Z,94508.88
2023-06-06T07:14:48.373Z,94501.81
2023-06-06T07:17:18.158Z,94502.56
2023-06-06T07:19:44.992Z,94488.59
2023-06-06T07:22:11.703Z,94492.34
2023-06-06T07:24:38.463Z,94492.41
2023-06-06T07:27:05.993Z,94492.22
2023-06-06T07:29:32.698Z,94487.06
2023-06-06T07:31:59.323Z,94487.63
2023-06-06T07:34:26.547Z,94492.78
2023-06-06T07:36:53.543Z,94499.00
2023-06-06T07:39:20.228Z,94495.53
2023-06-06T07:41:46.907Z,94497.13
2023-06-06T07:44:17.291Z,94489.69
2023-06-06T07:46:44.042Z,94495.38
2023-06-06T07:49:10.904Z,94488.31
2023-06-06T07:51:37.695Z,94491.81
2023-06-06T07:54:04.592Z,94491.38
2023-06-06T07:56:32.863Z,94491.84
2023-06-06T07:59:00.418Z,94490.00
2023-06-06T08:01:28.312Z,94496.78
2023-06-06T08:03:55.764Z,94490.03
2023-06-06T08:06:24.584Z,94496.41
2023-06-06T08:08:52.657Z,94494.09
2023-06-06T08:11:19.471Z,94497.63
2023-06-06T08:13:46.274Z,94499.31
2023-06-06T08:16:12.998Z,94492.59
2023-06-06T08:18:39.806Z,94494.81
2023-06-06T08:21:06.802Z,94494.59
2023-06-06T08:23:35.078Z,94491.06
2023-06-06T08:26:02.281Z,94491.88
2023-06-06T08:28:29.687Z,94490.31
2023-06-06T08:30:57.305Z,94489.16
2023-06-06T08:33:24.156Z,94485.31
2023-06-06T08:35:50.890Z,94481.44
2023-06-06T08:38:17.540Z,94481.59
2023-06-06T08:40:44.449Z,94482.91
2023-06-06T08:43:13.172Z,94482.56
2023-06-06T08:45:48.274Z,94480.50
2023-06-06T08:48:17.403Z,94483.25
2023-06-06T08:50:45.529Z,94475.91
2023-06-06T08:53:15.610Z,94477.31
2023-06-06T08:55:43.026Z,94467.63
2023-06-06T08:58:11.897Z,94459.22
2023-06-06T09:00:38.774Z,94471.84
2023-06-06T09:03:07.994Z,94477.06
2023-06-06T09:05:39.209Z,94470.72
2023-06-06T09:08:07.846Z,94457.13
2023-06-06T09:10:34.510Z,94458.03
2023-06-06T09:13:02.283Z,94454.81
2023-06-06T09:15:29.712Z,94443.91
2023-06-06T09:17:56.581Z,94433.28
2023-06-06T09:20:25.124Z,94438.84
2023-06-06T09:22:51.904Z,94444.25
2023-06-06T09:25:20.577Z,94446.13
2023-06-06T09:27:48.234Z,94450.56
2023-06-06T09:30:25.703Z,94447.94
2023-06-06T09:33:02.652Z,94438.78
2023-06-06T09:35:43.382Z,94443.88
2023-06-06T09:38:16.832Z,94443.53
2023-06-06T09:40:48.733Z,94439.69
2023-06-06T09:43:19.288Z,94432.53
2023-06-06T09:45:55.591Z,94436.38
2023-06-06T09:48:27.124Z,94429.22
2023-06-06T09:50:54.367Z,94436.75
2023-06-06T09:53:28.467Z,94429.22
2023-06-06T09:55:59.034Z,94428.53
2023-06-06T09:58:27.994Z,94425.00
2023-06-06T10:00:58.941Z,94425.50
2023-06-06T10:03:26.303Z,94417.00
2023-06-06T10:05:53.772Z,94408.81
2023-06-06T10:08:25.309Z,94407.53
2023-06-06T10:10:53.660Z,94402.66
2023-06-06T10:13:23.914Z,94407.34
2023-06-06T10:15:51.821Z,94396.75
2023-06-06T10:18:19.830Z,94404.44
2023-06-06T10:20:48.005Z,94400.63
2023-06-06T10:23:15.323Z,94400.34
2023-06-06T10:25:44.119Z,94393.34
2023-06-06T10:28:33.325Z,94396.50
2023-06-06T10:31:06.190Z,94390.94
2023-06-06T10:33:46.262Z,94386.25
2023-06-06T10:36:16.806Z,94380.56
2023-06-06T10:39:22.102Z,94381.63
2023-06-06T10:42:06.815Z,94376.31
2023-06-06T10:44:54.183Z,94381.91
2023-06-06T10:47:34.491Z,94373.34
2023-06-06T10:50:22.672Z,94372.59
2023-06-06T10:53:06.442Z,94361.00
2023-06-06T10:55:33.958Z,94367.38
2023-06-06T10:58:21.136Z,94356.38
2023-06-06T11:00:51.015Z,94356.53
2023-06-06T11:03:21.610Z,94346.66
2023-06-06T11:06:13.182Z,94350.41
2023-06-06T11:08:55.216Z,94343.38
2023-06-06T11:11:28.263Z,94333.25
2023-06-06T11:13:57.738Z,94342.03
2023-06-06T11:16:49.556Z,94330.34
2023-06-06T11:19:19.340Z,94334.44
2023-06-06T11:21:51.348Z,94327.03
2023-06-06T11:24:23.143Z,94319.94
2023-06-06T11:26:53.185Z,94316.84
2023-06-06T11:29:23.760Z,94318.56
2023-06-06T11:31:50.511Z,94315.38
2023-06-06T11:34:17.462Z,94316.53
2023-06-06T11:36:46.026Z,94309.22
2023-06-06T11:39:14.558Z,94315.81
2023-06-06T11:41:42.872Z,94308.88
2023-06-06T11:44:09.906Z,94301.78
2023-06-06T11:46:46.748Z,94299.19
2023-06-06T11:49:13.471Z,94291.16
2023-06-06T11:51:40.151Z,94305.47
2023-06-06T11:54:13.050Z,94309.06
2023-06-06T11:56:40.997Z,94307.25
2023-06-06T11:59:09.742Z,94300.34
2023-06-06T12:01:36.868Z,94294.22
2023-06-06T12:04:06.653Z,94303.44
2023-06-06T12:06:34.708Z,94287.97
2023-06-06T12:09:02.162Z,94281.31
2023-06-06T12:11:33.174Z,94289.53
2023-06-06T12:13:59.858Z,94291.56
2023-06-06T12:16:29.584Z,94287.56
2023-06-06T12:18:56.678Z,94279.28
2023-06-06T12:21:24.007Z,94281.06
2023-06-06T12:23:51.259Z,94273.28
2023-06-06T12:26:18.133Z,94267.53
2023-06-06T12:29:00.803Z,94259.41
2023-06-06T12:31:31.662Z,94255.50
2023-06-06T12:33:59.386Z,94252.84
2023-06-06T12:36:27.680Z,94261.00
2023-06-06T12:39:01.946Z,94255.09
2023-06-06T12:41:42.329Z,94247.25
2023-06-06T12:44:12.509Z,94246.25
2023-06-06T12:46:43.531Z,94244.44
2023-06-06T12:49:11.562Z,94253.34
2023-06-06T12:51:41.868Z,94249.59
2023-06-06T12:54:08.605Z,94233.88
2023-06-06T12:56:35.292Z,94229.47
2023-06-06T12:59:02.234Z,94231.34
2023-06-06T13:01:30.165Z,94236.19
2023-06-06T13:03:58.182Z,94233.31
2023-06-06T13:06:24.952Z,94229.63
2023-06-06T13:08:51.565Z,94237.97
2023-06-06T13:11:19.048Z,94234.09
2023-06-06T13:13:46.425Z,94224.72
2023-06-06T13:16:13.309Z,94225.00
2023-06-06T13:18:40.140Z,94231.56
2023-06-06T13:21:07.001Z,94227.72
2023-06-06T13:23:33.871Z,94219.75
2023-06-06T13:26:00.599Z,94221.47
2023-06-06T13:28:27.194Z,94222.53
2023-06-06T13:30:54.660Z,94219.00
2023-06-06T13:33:21.520Z,94206.66
2023-06-06T13:35:49.867Z,94219.44
2023-06-06T13:38:19.949Z,94213.88
2023-06-06T13:40:47.414Z,94213.88
2023-06-06T13:43:17.219Z,94208.44
2023-06-06T13:45:44.397Z,94212.19
2023-06-06T13:48:11.188Z,94206.75
2023-06-06T13:50:38.172Z,94199.78
2023-06-06T13:53:04.966Z,94209.81
2023-06-06T13:55:32.782Z,94204.53
2023-06-06T13:58:04.085Z,94209.22
2023-06-06T14:00:32.470Z,94211.88
2023-06-06T14:03:01.373Z,94211.41
2023-06-06T14:05:29.461Z,94208.72
2023-06-06T14:07:56.551Z,94200.66
2023-06-06T14:10:23.249Z,94207.59
2023-06-06T14:12:50.226Z,94207.50
2023-06-06T14:15:17.731Z,94202.84
2023-06-06T14:17:44.943Z,94211.06
2023-06-06T14:20:14.314Z,94203.06
2023-06-06T14:22:41.611Z,94207.84
2023-06-06T14:25:09.288Z,94205.09
2023-06-06T14:27:37.400Z,94213.81
2023-06-06T14:30:06.572Z,94218.00
2023-06-06T14:32:34.832Z,94220.25
2023-06-06T14:35:05.052Z,94228.63
2023-06-06T14:37:31.965Z,94228.19
2023-06-06T14:40:00.070Z,94220.63
2023-06-06T14:42:39.277Z,94222.94
2023-06-06T14:45:37.005Z,94229.56
2023-06-06T14:48:04.368Z,94227.25
2023-06-06T14:50:31.447Z,94223.13
2023-06-06T14:52:58.120Z,94227.44
2023-06-06T14:55:24.815Z,94229.41
2023-06-06T14:57:51.474Z,94219.91
2023-06-06T15:00:18.324Z,94225.81
2023-06-06T15:02:45.078Z,94223.41
2023-06-06T15:05:11.920Z,94224.53
2023-06-06T15:07:38.649Z,94225.75
2023-06-06T15:10:05.704Z,94221.06
2023-06-06T15:12:32.409Z,94216.91
2023-06-06T15:14:59.084Z,94224.31
2023-06-06T15:17:25.968Z,94229.13
2023-06-06T15:19:52.697Z,94227.75
2023-06-06T15:22:19.422Z,94227.63
2023-06-06T15:24:46.319Z,94234.50
2023-06-06T15:27:13.210Z,94237.09
2023-06-06T15:29:43.479Z,94236.34
2023-06-06T15:32:11.967Z,94234.13
2023-06-06T15:34:39.244Z,94240.19
2023-06-06T15:37:09.898Z,94238.09
2023-06-06T15:39:36.658Z,94232.66
2023-06-06T15:42:03.573Z,94232.59
2023-06-06T15:44:32.575Z,94242.03
2023-06-06T15:47:00.137Z,94235.88
2023-06-06T15:49:26.806Z,94240.34
2023-06-06T15:51:53.498Z,94241.06
2023-06-06T15:54:20.233Z,94244.41
2023-06-06T15:56:46.854Z,94245.38
2023-06-06T15:59:13.607Z,94241.72
2023-06-06T16:01:40.458Z,94238.22
2023-06-06T16:04:07.221Z,94244.44
2023-06-06T16:06:34.064Z,94237.56
2023-06-06T16:09:02.300Z,94244.72
2023-06-06T16:11:29.704Z,94231.00
2023-06-06T16:13:56.606Z,94237.22
2023-06-06T16:16:24.657Z,94243.41
2023-06-06T16:18:51.594Z,94249.09
2023-06-06T16:21:18.328Z,94238.72
2023-06-06T16:26:12.221Z,94242.41
2023-06-06T16:28:38.900Z,94249.31
2023-06-06T16:31:05.558Z,94239.81
2023-06-06T16:33:32.246Z,94238.13
2023-06-06T16:36:00.554Z,94241.91
2023-06-06T16:38:27.367Z,94237.72
2023-06-06T16:40:54.094Z,94242.28
2023-06-06T16:43:20.845Z,94246.59
2023-06-06T16:45:47.681Z,94232.38
2023-06-06T16:48:16.111Z,94235.00
2023-06-06T16:50:43.131Z,94233.63
2023-06-06T16:53:09.915Z,94237.69
2023-06-06T16:55:36.653Z,94233.00
2023-06-06T16:58:04.625Z,94224.41
2023-06-06T17:00:31.438Z,94234.75
2023-06-06T17:02:58.154Z,94224.38
2023-06-06T17:05:24.892Z,94228.44
2023-06-06T17:07:51.577Z,94226.06
2023-06-06T17:10:18.225Z,94222.66
2023-06-06T17:12:45.175Z,94225.63
2023-06-06T17:15:12.037Z,94229.75
2023-06-06T17:17:38.802Z,94237.50
2023-06-06T17:20:06.104Z,94238.09
2023-06-06T17:22:33.374Z,94235.19
2023-06-06T17:25:00.869Z,94238.50
2023-06-06T17:27:27.648Z,94231.50
2023-06-06T17:29:54.500Z,94233.69
2023-06-06T17:32:21.531Z,94240.97
2023-06-06T17:34:48.232Z,94241.38
2023-06-06T17:37:14.962Z,94236.19
2023-06-06T17:39:41.767Z,94237.59
2023-06-06T17:42:08.611Z,94232.81
2023-06-06T17:44:35.351Z,94229.19
2023-06-06T17:47:02.386Z,94232.16
2023-06-06T17:49:29.861Z,94230.09
2023-06-06T17:51:56.715Z,94240.19
2023-06-06T17:54:23.887Z,94232.72
2023-06-06T17:56:50.705Z,94231.94
2023-06-06T17:59:17.452Z,94231.78
2023-06-06T18:01:44.156Z,94236.16
2023-06-06T18:04:12.853Z,94238.97
2023-06-06T18:06:40.916Z,94241.19
2023-06-06T18:09:13.471Z,94250.66
2023-06-06T18:11:40.481Z,94244.44
2023-06-06T18:14:07.354Z,94244.94
2023-06-06T18:16:36.695Z,94245.56
2023-06-06T18:19:03.340Z,94250.72
2023-06-06T18:21:30.128Z,94248.78
2023-06-06T18:23:59.785Z,94255.97
2023-06-06T18:26:27.132Z,94267.22
2023-06-06T18:28:53.798Z,94267.19
2023-06-06T18:31:32.640Z,94272.75
2023-06-06T18:34:04.054Z,94270.94
2023-06-06T18:36:30.864Z,94270.38
2023-06-06T18:38:58.927Z,94275.63
2023-06-06T18:41:27.100Z,94276.19
2023-06-06T18:43:53.749Z,94277.94
2023-06-06T18:46:20.492Z,94272.94
2023-06-06T18:48:47.491Z,94268.41
2023-06-06T18:51:14.933Z,94271.06
2023-06-06T18:53:41.623Z,94275.94
2023-06-06T18:56:08.345Z,94267.44
2023-06-06T18:58:35.106Z,94266.56
2023-06-06T19:01:03.533Z,94265.97
2023-06-06T19:03:30.602Z,94270.88
2023-06-06T19:05:57.436Z,94271.41
2023-06-06T19:08:24.205Z,94278.59
2023-06-06T19:10:51.021Z,94277.16
2023-06-06T19:13:17.770Z,94273.66
2023-06-06T19:15:44.745Z,94276.28
2023-06-06T19:18:23.135Z,94280.50
2023-06-06T19:20:57.994Z,94279.03
2023-06-06T19:23:25.397Z,94280.41
2023-06-06T19:25:52.256Z,94285.72
2023-06-06T19:28:19.131Z,94278.06
2023-06-06T19:30:46.411Z,94280.16
2023-06-06T19:33:17.797Z,94285.97
2023-06-06T19:35:46.227Z,94291.53
2023-06-06T19:38:13.406Z,94299.91
2023-06-06T19:40:40.204Z,94291.53
2023-06-06T19:43:07.004Z,94290.06
2023-06-06T19:45:33.982Z,94292.59
2023-06-06T19:48:00.950Z,94295.78
2023-06-06T19:50:27.630Z,94303.66
2023-06-06T19:52:56.404Z,94302.69
2023-06-06T19:55:23.377Z,94296.97
2023-06-06T19:57:50.070Z,94292.72
2023-06-06T20:00:17.285Z,94291.06
2023-06-06T20:02:44.029Z,94291.88
2023-06-06T20:05:12.839Z,94294.53
2023-06-06T20:07:40.760Z,94289.75
2023-06-06T20:10:08.902Z,94290.53
2023-06-06T20:12:36.126Z,94285.78
2023-06-06T20:15:03.478Z,94291.53
2023-06-06T20:17:30.327Z,94287.91
2023-06-06T20:19:57.099Z,94293.72
2023-06-06T20:22:28.058Z,94302.91
2023-06-06T20:24:55.754Z,94308.69
2023-06-06T20:27:22.562Z,94314.84
2023-06-06T20:29:49.305Z,94311.94
2023-06-06T20:32:16.015Z,94321.22
2023-06-06T20:34:42.704Z,94328.06
2023-06-06T20:37:09.527Z,94319.25
2023-06-06T20:39:38.554Z,94325.22
2023-06-06T20:42:06.813Z,94324.38
2023-06-06T20:44:34.520Z,94323.44
2023-06-06T20:47:03.276Z,94328.66
2023-06-06T20:49:35.101Z,94331.44
2023-06-06T20:52:05.377Z,94328.13
2023-06-06T20:54:32.255Z,94334.75
2023-06-06T20:56:58.959Z,94324.00
2023-06-06T20:59:28.397Z,94334.19
2023-06-06T21:01:55.377Z,94333.44
2023-06-06T21:04:22.410Z,94337.25
2023-06-06T21:06:49.071Z,94338.59
2023-06-06T21:09:15.780Z,94343.47
2023-06-06T21:11:44.191Z,94335.16
2023-06-06T21:14:12.739Z,94337.94
2023-06-06T21:16:40.961Z,94343.31
2023-06-06T21:19:09.744Z,94334.06
2023-06-06T21:21:37.301Z,94347.22
2023-06-06T21:24:05.890Z,94351.41
2023-06-06T21:26:32.734Z,94346.50
2023-06-06T21:28:59.449Z,94348.38
2023-06-06T21:31:26.200Z,94346.50
2023-06-06T21:33:52.963Z,94354.00
2023-06-06T21:36:19.643Z,94358.00
2023-06-06T21:38:46.359Z,94360.06
2023-06-06T21:41:13.022Z,94365.44
2023-06-06T21:43:39.869Z,94370.38
2023-06-06T21:46:06.675Z,94349.97
2023-06-06T21:48:33.381Z,94360.56
2023-06-06T21:51:00.202Z,94361.06
2023-06-06T21:53:27.198Z,94360.06
2023-06-06T21:55:54.010Z,94351.78
2023-06-06T21:58:20.951Z,94363.59
2023-06-06T22:00:47.682Z,94358.56
2023-06-06T22:03:14.441Z,94362.47
2023-06-06T22:05:41.101Z,94363.00
2023-06-06T22:08:07.804Z,94356.63
2023-06-06T22:10:34.576Z,94360.44
2023-06-06T22:13:01.321Z,94352.56
2023-06-06T22:15:28.013Z,94356.03
2023-06-06T22:17:54.839Z,94354.66
2023-06-06T22:20:21.553Z,94353.50
2023-06-06T22:22:48.194Z,94353.66
2023-06-06T22:25:15.089Z,94352.03
2023-06-06T22:27:43.285Z,94366.19
2023-06-06T22:30:11.190Z,94365.50
2023-06-06T22:32:37.887Z,94357.03
2023-06-06T22:35:04.935Z,94363.88
2023-06-06T22:37:31.703Z,94355.47
2023-06-06T22:39:58.340Z,94364.16
2023-06-06T22:42:25.844Z,94358.38
2023-06-06T22:44:52.697Z,94359.16
2023-06-06T22:47:19.415Z,94361.63
2023-06-06T22:49:47.750Z,94363.44
2023-06-06T22:52:14.470Z,94357.84
2023-06-06T22:54:41.176Z,94362.53
2023-06-06T22:57:08.074Z,94366.03
2023-06-06T22:59:34.822Z,94363.56
2023-06-06T23:02:01.491Z,94364.19
2023-06-06T23:04:28.233Z,94369.94
2023-06-06T23:06:54.864Z,94371.16
2023-06-06T23:09:21.533Z,94367.28
2023-06-06T23:11:48.274Z,94370.81
2023-06-06T23:14:15.028Z,94363.28
2023-06-06T23:16:41.733Z,94357.53
2023-06-06T23:19:09.457Z,94353.22
2023-06-06T23:21:37.299Z,94348.19
2023-06-06T23:24:05.262Z,94338.81
2023-06-06T23:26:32.117Z,94342.41
2023-06-06T23:28:58.953Z,94345.63
2023-06-06T23:31:25.786Z,94350.66
2023-06-06T23:33:52.534Z,94338.38
2023-06-06T23:36:19.589Z,94341.38
2023-06-06T23:38:46.435Z,94334.44
2023-06-06T23:41:13.206Z,94337.72
2023-06-06T23:43:39.920Z,94344.75
2023-06-06T23:46:06.601Z,94348.84
2023-06-06T23:48:33.263Z,94337.50
2023-06-06T23:51:00.049Z,94334.19
2023-06-06T23:53:26.814Z,94325.19
2023-06-06T23:55:53.532Z,94335.78
2023-06-06T23:58:20.222Z,94325.22
